Air Quality Table

TIMESTAMP NO2 SO2 O3 PM10 PM2.5 TEMP HUM AIRPRES WS WD NO
2023-01-30 03:00 4.66 µg/m3 0.2 µg/m3 73.27 µg/m3 17.27 µg/m3 6.85 µg/m3 10.17 °C 81.7 % 1,013.15 mbar 2.36 m/s 326.77 Deg -0.15 µg/m3
2023-01-30 02:00 2.92 µg/m3 0.17 µg/m3 76.57 µg/m3 13.11 µg/m3 6.71 µg/m3 11.26 °C 83.23 % 1,012.94 mbar 3.74 m/s 266.82 Deg -0.11 µg/m3
2023-01-30 01:00 4.98 µg/m3 0.13 µg/m3 73.41 µg/m3 13.29 µg/m3 6.16 µg/m3 12.02 °C 79.59 % 1,012.63 mbar 4.04 m/s 36.27 Deg 0.23 µg/m3
2023-01-30 00:00 5.71 µg/m3 0.12 µg/m3 72.45 µg/m3 15.89 µg/m3 8.3 µg/m3 11.83 °C 80.61 % 1,012.82 mbar 3.12 m/s 21.13 Deg -0.01 µg/m3
2023-01-29 23:00 7.7 µg/m3 0.19 µg/m3 73.42 µg/m3 16.03 µg/m3 9.05 µg/m3 11.17 °C 87.03 % 1,012.84 mbar 2.94 m/s 30.98 Deg 2.95 µg/m3
2023-01-29 22:00 7.7 µg/m3 0.19 µg/m3 74.93 µg/m3 22.38 µg/m3 11.65 µg/m3 11.43 °C 85.89 % 1,012.79 mbar 2.04 m/s 39.43 Deg 2.66 µg/m3
2023-01-29 21:00 11.05 µg/m3 0.23 µg/m3 70.98 µg/m3 22.14 µg/m3 6.74 µg/m3 9.7 °C 97.25 % 1,012.38 mbar 3.27 m/s 181.53 Deg 1.39 µg/m3
2023-01-29 20:00 27.96 µg/m3 0.24 µg/m3 54.81 µg/m3 14.38 µg/m3 6.4 µg/m3 9.28 °C 99.03 % 1,012.22 mbar 2.72 m/s 324.25 Deg 2.25 µg/m3
2023-01-29 19:00 19.93 µg/m3 0.22 µg/m3 61.18 µg/m3 15.4 µg/m3 6.22 µg/m3 9.81 °C 98.2 % 1,012.02 mbar 1.49 m/s 168.62 Deg 2.61 µg/m3
2023-01-29 18:00 8.52 µg/m3 0.2 µg/m3 74.02 µg/m3 11.23 µg/m3 5.32 µg/m3 10.55 °C 86.39 % 1,011.67 mbar 3.6 m/s 31.57 Deg 0.64 µg/m3
2023-01-29 17:00 5.09 µg/m3 0.15 µg/m3 78.16 µg/m3 10.63 µg/m3 5.33 µg/m3 12.09 °C 72.71 % 1,010.90 mbar 3.81 m/s 36.57 Deg 0.45 µg/m3
2023-01-29 16:00 5.43 µg/m3 0.18 µg/m3 77.06 µg/m3 10.89 µg/m3 4.08 µg/m3 12.4 °C 76.83 % 1,010.68 mbar 4.22 m/s 30.8 Deg 0.68 µg/m3
2023-01-29 15:00 5.44 µg/m3 0.18 µg/m3 76.12 µg/m3 10.13 µg/m3 3.81 µg/m3 12.63 °C 75.21 % 1,010.48 mbar 4.48 m/s 32.25 Deg 0.76 µg/m3
2023-01-29 14:00 5.69 µg/m3 0.22 µg/m3 76.45 µg/m3 10.6 µg/m3 4.74 µg/m3 12.89 °C 73.58 % 1,010.62 mbar 3.92 m/s 27.9 Deg 0.93 µg/m3
2023-01-29 13:00 6.13 µg/m3 0.21 µg/m3 76.4 µg/m3 9.85 µg/m3 5.22 µg/m3 12.92 °C 71.57 % 1,011.22 mbar 3.6 m/s 28.33 Deg 1.03 µg/m3
2023-01-29 12:00 7.86 µg/m3 0.2 µg/m3 73.09 µg/m3 8.94 µg/m3 5.3 µg/m3 12.88 °C 70.68 % 1,011.79 mbar 3.25 m/s 27.6 Deg 1.57 µg/m3
2023-01-29 11:00 9.15 µg/m3 0.23 µg/m3 71.22 µg/m3 9.67 µg/m3 4.15 µg/m3 12.5 °C 72.17 % 1,011.91 mbar 3.63 m/s 32.7 Deg 1.69 µg/m3
2023-01-29 10:00 9.08 µg/m3 0.22 µg/m3 72.27 µg/m3 7.68 µg/m3 4.74 µg/m3 12.43 °C 72.15 % 1,011.33 mbar 3.42 m/s 34.17 Deg 1.61 µg/m3
2023-01-29 09:00 27.2 µg/m3 0.35 µg/m3 51.11 µg/m3 10.03 µg/m3 6.02 µg/m3 11.31 °C 75.81 % 1,010.78 mbar 2.01 m/s 176.07 Deg 6.39 µg/m3
2023-01-29 08:00 35.78 µg/m3 0.27 µg/m3 37.48 µg/m3 10.38 µg/m3 5.08 µg/m3 9.34 °C 86.79 % 1,010.13 mbar 1.37 m/s 331.15 Deg 5.01 µg/m3
2023-01-29 07:00 15.56 µg/m3 0.2 µg/m3 56.62 µg/m3 9.78 µg/m3 5.53 µg/m3 9.03 °C 88.84 % 1,009.83 mbar 1.88 m/s 311.92 Deg 0.7 µg/m3
2023-01-29 06:00 11.16 µg/m3 0.22 µg/m3 56.22 µg/m3 10.36 µg/m3 6.11 µg/m3 8.96 °C 90.54 % 1,009.55 mbar 1.87 m/s 306.55 Deg 0.27 µg/m3
2023-01-29 05:00 9.27 µg/m3 0.23 µg/m3 58.58 µg/m3 10.4 µg/m3 6.29 µg/m3 9.06 °C 89.62 % 1,009.24 mbar 1.97 m/s 303 Deg 0.34 µg/m3
2023-01-29 04:00 7.93 µg/m3 0.26 µg/m3 57.19 µg/m3 10.48 µg/m3 6.55 µg/m3 9.09 °C 90.93 % 1,009.16 mbar 1.82 m/s 292.73 Deg 0.11 µg/m3
2023-01-29 03:00 6.05 µg/m3 0.15 µg/m3 62.65 µg/m3 12.08 µg/m3 8.34 µg/m3 9.51 °C 89.33 % 1,009.03 mbar 1.66 m/s 289.7 Deg -0.07 µg/m3
2023-01-29 02:00 6.52 µg/m3 0.2 µg/m3 66.36 µg/m3 13.41 µg/m3 6.09 µg/m3 9.74 °C 86.2 % 1,009.02 mbar 1.75 m/s 286.52 Deg -0.05 µg/m3
2023-01-29 01:00 11.36 µg/m3 0.21 µg/m3 71.19 µg/m3 16.34 µg/m3 7.08 µg/m3 9.95 °C 75.64 % 1,008.68 mbar 1.98 m/s 293.5 Deg 0.22 µg/m3
2023-01-29 00:00 7.35 µg/m3 0.22 µg/m3 78.07 µg/m3 23.78 µg/m3 7.13 µg/m3 8.57 °C 91.2 % 1,009.26 mbar 2.49 m/s 322.6 Deg 0.29 µg/m3
2023-01-28 23:00 8.31 µg/m3 0.2 µg/m3 73.76 µg/m3 21.21 µg/m3 10.83 µg/m3 9.24 °C 90.65 % 1,008.91 mbar 2.34 m/s 320.67 Deg 0.21 µg/m3
2023-01-28 22:00 14.36 µg/m3 0.25 µg/m3 64.51 µg/m3 29.07 µg/m3 9.36 µg/m3 9.6 °C 89.07 % 1,008.38 mbar 1.95 m/s 291.53 Deg 0.66 µg/m3
2023-01-28 21:00 39.68 µg/m3 0.27 µg/m3 36.48 µg/m3 17.32 µg/m3 5.19 µg/m3 9.31 °C 90.09 % 1,007.89 mbar 1.62 m/s 255.1 Deg 2.22 µg/m3
2023-01-28 20:00 28.81 µg/m3 0.28 µg/m3 55.17 µg/m3 10.71 µg/m3 6.54 µg/m3 9.04 °C 89.73 % 1,007.57 mbar 1.68 m/s 297.02 Deg 4.9 µg/m3
2023-01-28 19:00 25.6 µg/m3 0.26 µg/m3 58.2 µg/m3 12.61 µg/m3 5.19 µg/m3 9.73 °C 81.82 % 1,007.20 mbar 2.61 m/s 297.75 Deg 2.82 µg/m3
2023-01-28 18:00 33.17 µg/m3 0.25 µg/m3 49.27 µg/m3 17.81 µg/m3 5.67 µg/m3 10.41 °C 79.81 % 1,006.46 mbar 1.45 m/s 307.37 Deg 2.27 µg/m3
2023-01-28 17:00 23.94 µg/m3 0.26 µg/m3 59.04 µg/m3 14.89 µg/m3 6.58 µg/m3 10.59 °C 82.41 % 1,006.12 mbar 1.52 m/s 292.62 Deg 3.39 µg/m3
2023-01-28 16:00 20.31 µg/m3 0.21 µg/m3 65.25 µg/m3 12.42 µg/m3 6.61 µg/m3 10.36 °C 79.33 % 1,005.64 mbar 2.37 m/s 283.3 Deg 1.24 µg/m3
2023-01-28 15:00 21.84 µg/m3 0.23 µg/m3 61.87 µg/m3 12.69 µg/m3 6.24 µg/m3 10.46 °C 78.55 % 1,005.15 mbar 1.73 m/s 272.1 Deg 1.97 µg/m3
2023-01-28 14:00 17.54 µg/m3 0.26 µg/m3 68.4 µg/m3 16.54 µg/m3 7.62 µg/m3 12.01 °C 70.21 % 1,004.97 mbar 2.25 m/s 300.72 Deg 3.05 µg/m3
2023-01-28 13:00 21.3 µg/m3 0.35 µg/m3 66.36 µg/m3 19.73 µg/m3 8.63 µg/m3 12.36 °C 70.94 % 1,005.32 mbar 1.65 m/s 280.6 Deg 4.73 µg/m3
2023-01-28 12:00 20.89 µg/m3 0.35 µg/m3 65.99 µg/m3 10.74 µg/m3 11.06 µg/m3 12.08 °C 71.79 % 1,005.78 mbar 2.06 m/s 341.98 Deg 4.23 µg/m3
2023-01-28 11:00 50.55 µg/m3 0.58 µg/m3 37.98 µg/m3 8.18 µg/m3 5.74 µg/m3 11.23 °C 80.9 % 1,006.20 mbar 1.24 m/s 307.45 Deg 22.83 µg/m3
2023-01-28 10:00 68.1 µg/m3 0.56 µg/m3 18.66 µg/m3 7.16 µg/m3 5.85 µg/m3 9.3 °C 86.71 % 1,006.05 mbar 0.84 m/s 309.78 Deg 24.08 µg/m3
2023-01-28 09:00 38.52 µg/m3 0.33 µg/m3 46.82 µg/m3 8.97 µg/m3 6.07 µg/m3 9.66 °C 82.11 % 1,005.40 mbar 2.15 m/s 324.75 Deg 5.97 µg/m3
2023-01-28 08:00 71.09 µg/m3 0.52 µg/m3 16.61 µg/m3 10.61 µg/m3 5.29 µg/m3 10.09 °C 76.93 % 1,004.90 mbar 0.92 m/s 300.21 Deg 26.11 µg/m3
2023-01-28 07:00 46.88 µg/m3 0.23 µg/m3 34.96 µg/m3 11.16 µg/m3 4.87 µg/m3 9.63 °C 79.61 % 1,004.69 mbar 1.36 m/s 293.62 Deg 6.17 µg/m3
2023-01-28 06:00 15.73 µg/m3 0.14 µg/m3 66.74 µg/m3 10.89 µg/m3 6.11 µg/m3 9.86 °C 78.94 % 1,004.55 mbar 1.41 m/s 287.83 Deg 0.65 µg/m3
2023-01-28 05:00 3.84 µg/m3 0.18 µg/m3 78.67 µg/m3 10.15 µg/m3 6.17 µg/m3 9.94 °C 76.41 % 1,004.35 mbar 1.78 m/s 284.57 Deg -0.13 µg/m3
2023-01-28 04:00 3.76 µg/m3 0.23 µg/m3 76.41 µg/m3 9.98 µg/m3 7.2 µg/m3 9.33 °C 82.32 % 1,004.47 mbar 1.87 m/s 285 Deg -0.05 µg/m3
2023-01-28 03:00 4.78 µg/m3 0.15 µg/m3 74.1 µg/m3 8.24 µg/m3 7.59 µg/m3 8.99 °C 85.25 % 1,004.54 mbar 1.65 m/s 309.22 Deg -0.08 µg/m3
2023-01-28 02:00 5.83 µg/m3 0.18 µg/m3 71.96 µg/m3 10.21 µg/m3 9.92 µg/m3 9.97 °C 86.6 % 1,004.22 mbar 2.22 m/s 295.38 Deg -0.08 µg/m3
2023-01-28 01:00 15.65 µg/m3 0.18 µg/m3 55.51 µg/m3 12.48 µg/m3 9.7 µg/m3 10.1 °C 85.67 % 1,004.27 mbar 1.49 m/s 304.3 Deg 0.34 µg/m3
2023-01-28 00:00 22.06 µg/m3 0.21 µg/m3 46.08 µg/m3 17.2 µg/m3 6.66 µg/m3 10.09 °C 88.07 % 1,004.33 mbar 1.41 m/s 300.73 Deg 0.77 µg/m3
2023-01-27 23:00 20.28 µg/m3 0.2 µg/m3 52.66 µg/m3 24.93 µg/m3 8.8 µg/m3 10.19 °C 86.16 % 1,004.38 mbar 1.56 m/s 293.57 Deg 1.01 µg/m3
2023-01-27 22:00 17.42 µg/m3 0.2 µg/m3 62.23 µg/m3 39.18 µg/m3 12.85 µg/m3 10.23 °C 83.39 % 1,004.08 mbar 1.57 m/s 310.2 Deg 0.72 µg/m3
2023-01-27 21:00 29.56 µg/m3 0.25 µg/m3 44.29 µg/m3 37.96 µg/m3 11.97 µg/m3 10.81 °C 89.88 % 1,004.08 mbar 1.57 m/s 297.58 Deg 1.72 µg/m3
2023-01-27 20:00 48.29 µg/m3 0.25 µg/m3 29.45 µg/m3 21.13 µg/m3 8.06 µg/m3 11.31 °C 83.2 % 1,003.41 mbar 1.29 m/s 304.21 Deg 5.17 µg/m3
2023-01-27 19:00 44.2 µg/m3 0.32 µg/m3 34.42 µg/m3 19.53 µg/m3 6.91 µg/m3 11.73 °C 80.08 % 1,002.67 mbar 1.28 m/s 316.62 Deg 5.97 µg/m3
2023-01-27 18:00 38.69 µg/m3 0.27 µg/m3 45.82 µg/m3 27.49 µg/m3 8 µg/m3 11.86 °C 80.27 % 1,001.86 mbar 1.75 m/s 315.38 Deg 4.4 µg/m3
2023-01-27 17:00 25.46 µg/m3 0.23 µg/m3 60.08 µg/m3 14.23 µg/m3 6.41 µg/m3 12.67 °C 74.47 % 1,001.38 mbar 2.85 m/s 311.22 Deg 3.85 µg/m3
2023-01-27 16:00 24.74 µg/m3 0.23 µg/m3 62.15 µg/m3 12.23 µg/m3 5.34 µg/m3 12.33 °C 79.51 % 1,000.68 mbar 2.65 m/s 326.55 Deg 3.75 µg/m3
2023-01-27 15:00 16.49 µg/m3 0.2 µg/m3 70.02 µg/m3 14.54 µg/m3 6.42 µg/m3 13.42 °C 66.44 % 999.88 mbar 3.58 m/s 329 Deg 3.5 µg/m3
2023-01-27 14:00 11.46 µg/m3 0.19 µg/m3 77.43 µg/m3 17.45 µg/m3 4.55 µg/m3 13.36 °C 68.04 % 999.45 mbar 3.64 m/s 330.5 Deg 2.61 µg/m3
2023-01-27 13:00 15.99 µg/m3 0.21 µg/m3 70.64 µg/m3 18.72 µg/m3 4.81 µg/m3 12.89 °C 74.23 % 999.28 mbar 3.84 m/s 326.68 Deg 3.37 µg/m3
2023-01-27 12:00 20.2 µg/m3 0.24 µg/m3 65.98 µg/m3 20.25 µg/m3 6.73 µg/m3 12.56 °C 75.82 % 999.69 mbar 2.88 m/s 325.43 Deg 4.12 µg/m3
2023-01-27 11:00 25.37 µg/m3 0.32 µg/m3 60.16 µg/m3 19.71 µg/m3 6.62 µg/m3 12.22 °C 79.7 % 999.53 mbar 2.8 m/s 332.37 Deg 8.87 µg/m3
2023-01-27 10:00 36.15 µg/m3 0.34 µg/m3 49.71 µg/m3 14.82 µg/m3 5.79 µg/m3 11.64 °C 84.55 % 998.86 mbar 2.34 m/s 325.75 Deg 6.31 µg/m3
2023-01-27 09:00 35.4 µg/m3 0.27 µg/m3 52.68 µg/m3 8.52 µg/m3 5.47 µg/m3 11.52 °C 85.77 % 998.00 mbar 2.42 m/s 324.62 Deg 6.14 µg/m3
2023-01-27 08:00 33.7 µg/m3 0.26 µg/m3 51.85 µg/m3 6.86 µg/m3 6.39 µg/m3 10.7 °C 88.47 % 997.35 mbar 2.36 m/s 315.17 Deg 4.88 µg/m3
2023-01-27 07:00 28.95 µg/m3 0.2 µg/m3 55.82 µg/m3 8.14 µg/m3 6.17 µg/m3 9.75 °C 93.69 % 997.22 mbar 2.37 m/s 325.73 Deg 4.31 µg/m3
2023-01-27 06:00 41.57 µg/m3 0.22 µg/m3 35.31 µg/m3 7.82 µg/m3 5.22 µg/m3 9.14 °C 95.56 % 997.17 mbar 0.9 m/s 291.25 Deg 2.99 µg/m3
2023-01-27 05:00 9.52 µg/m3 0.15 µg/m3 71.27 µg/m3 5.4 µg/m3 4.59 µg/m3 9.74 °C 92.94 % 997.08 mbar 2.94 m/s 318.02 Deg 0.12 µg/m3
2023-01-27 04:00 2.25 µg/m3 0.22 µg/m3 79.89 µg/m3 6.13 µg/m3 5.21 µg/m3 10.95 °C 83.28 % 997.57 mbar 3.69 m/s 274.9 Deg -0.14 µg/m3
2023-01-27 03:00 2.46 µg/m3 0.19 µg/m3 79.89 µg/m3 9.5 µg/m3 5.07 µg/m3 10.53 °C 84.26 % 998.14 mbar 3.59 m/s 275.2 Deg -0.15 µg/m3
2023-01-27 02:00 4.07 µg/m3 0.2 µg/m3 79.61 µg/m3 11.65 µg/m3 5.1 µg/m3 11.03 °C 71.58 % 998.77 mbar 2.59 m/s 269.82 Deg -0.11 µg/m3
2023-01-27 01:00 17.42 µg/m3 0.21 µg/m3 58.66 µg/m3 12.59 µg/m3 4.76 µg/m3 9.83 °C 79.45 % 999.33 mbar 1.05 m/s 300.15 Deg 0.19 µg/m3
2023-01-27 00:00 14.24 µg/m3 0.24 µg/m3 63.25 µg/m3 15.6 µg/m3 4.13 µg/m3 9.68 °C 78.85 % 999.90 mbar 1.35 m/s 275.48 Deg 0.42 µg/m3
2023-01-26 23:00 23.29 µg/m3 0.27 µg/m3 49.16 µg/m3 19.38 µg/m3 5.38 µg/m3 8.96 °C 83.3 % 1,000.59 mbar 1.56 m/s 292.83 Deg 0.71 µg/m3
2023-01-26 22:00 35.08 µg/m3 0.33 µg/m3 41.76 µg/m3 21.48 µg/m3 6.8 µg/m3 9.07 °C 85.22 % 1,000.91 mbar 1.22 m/s 287.7 Deg 2.99 µg/m3
2023-01-26 21:00 59.89 µg/m3 0.39 µg/m3 18.53 µg/m3 15.19 µg/m3 4.9 µg/m3 8.71 °C 93.06 % 1,001.13 mbar 1.08 m/s 284.35 Deg 5.65 µg/m3
2023-01-26 20:00 56.57 µg/m3 0.32 µg/m3 29.2 µg/m3 15.74 µg/m3 6.32 µg/m3 8.86 °C 90.34 % 1,000.81 mbar 1 m/s 320.42 Deg 3.79 µg/m3
2023-01-26 19:00 30.24 µg/m3 0.25 µg/m3 57.45 µg/m3 24.83 µg/m3 5.36 µg/m3 8.57 °C 91.92 % 1,000.81 mbar 1.5 m/s 256.53 Deg 1.82 µg/m3
2023-01-26 18:00 22.79 µg/m3 0.22 µg/m3 65.28 µg/m3 13.82 µg/m3 6.48 µg/m3 9.12 °C 81.56 % 1,000.41 mbar 3.08 m/s 318.92 Deg 2.32 µg/m3
2023-01-26 17:00 19.34 µg/m3 0.24 µg/m3 67.75 µg/m3 11.6 µg/m3 5.93 µg/m3 11.45 °C 63.98 % 999.85 mbar 3.21 m/s 285.03 Deg 1.6 µg/m3
2023-01-26 16:00 14.56 µg/m3 0.2 µg/m3 74.74 µg/m3 17.27 µg/m3 5.99 µg/m3 12.78 °C 56.14 % 999.89 mbar 3.53 m/s 280.83 Deg 1.68 µg/m3
2023-01-26 15:00 12.55 µg/m3 0.24 µg/m3 76.66 µg/m3 19.03 µg/m3 6.51 µg/m3 13.06 °C 56.76 % 999.94 mbar 4.07 m/s 272.68 Deg 1.63 µg/m3
2023-01-26 14:00 8.82 µg/m3 0.28 µg/m3 79.13 µg/m3 17.98 µg/m3 6.53 µg/m3 13.64 °C 53.86 % 1,000.30 mbar 4.49 m/s 258.82 Deg 1.74 µg/m3
2023-01-26 13:00 7.82 µg/m3 0.28 µg/m3 79.84 µg/m3 24.71 µg/m3 7.85 µg/m3 13.76 °C 53.76 % 1,001.08 mbar 4.84 m/s 256.67 Deg 1.5 µg/m3
2023-01-26 12:00 8.29 µg/m3 0.31 µg/m3 77.75 µg/m3 39.1 µg/m3 12.81 µg/m3 13.77 °C 52.34 % 1,002.06 mbar 3.91 m/s 253.12 Deg 1.61 µg/m3
2023-01-26 11:00 10.93 µg/m3 0.32 µg/m3 71.57 µg/m3 55.02 µg/m3 21.79 µg/m3 13.39 °C 54.09 % 1,002.77 mbar 3.75 m/s 262.08 Deg 1.91 µg/m3
2023-01-26 10:00 75.18 µg/m3 1.27 µg/m3 19.38 µg/m3 44.68 µg/m3 4.91 µg/m3 11.81 °C 70.75 % 1,002.93 mbar 1.12 m/s 297.52 Deg 65.04 µg/m3
2023-01-26 09:00 89.16 µg/m3 1.27 µg/m3 6.83 µg/m3 36.84 µg/m3 5.28 µg/m3 10.35 °C 77.66 % 1,002.94 mbar 1.07 m/s 332.9 Deg 79.82 µg/m3
2023-01-26 08:00 75.02 µg/m3 0.65 µg/m3 9.94 µg/m3 28.03 µg/m3 5.69 µg/m3 9.42 °C 82.9 % 1,003.11 mbar 1.08 m/s 323.25 Deg 32.92 µg/m3
2023-01-26 07:00 79 µg/m3 0.71 µg/m3 4.81 µg/m3 14.14 µg/m3 5.93 µg/m3 8.93 °C 88.05 % 1,003.33 mbar 0.95 m/s 317.85 Deg 39.04 µg/m3
2023-01-26 06:00 34.76 µg/m3 0.26 µg/m3 41.18 µg/m3 9.86 µg/m3 6.08 µg/m3 9.31 °C 87.04 % 1,003.58 mbar 0.93 m/s 324.05 Deg 3.86 µg/m3
2023-01-26 05:00 11.33 µg/m3 0.2 µg/m3 67.76 µg/m3 8.14 µg/m3 5.52 µg/m3 9.93 °C 83.3 % 1,003.97 mbar 1.08 m/s 325.62 Deg 0.32 µg/m3
2023-01-26 04:00 4 µg/m3 0.18 µg/m3 80.7 µg/m3 10.03 µg/m3 5.04 µg/m3 11.12 °C 66.95 % 1,004.25 mbar 2.03 m/s 309.07 Deg -0.08 µg/m3
2023-01-26 03:00 2.23 µg/m3 0.17 µg/m3 85.11 µg/m3 10.27 µg/m3 5.89 µg/m3 11.77 °C 59.09 % 1,004.47 mbar 3.17 m/s 271.72 Deg -0.15 µg/m3
2023-01-26 02:00 1.96 µg/m3 0.23 µg/m3 84.27 µg/m3 13.09 µg/m3 7.55 µg/m3 11.85 °C 67.38 % 1,004.80 mbar 3.42 m/s 255.2 Deg -0.17 µg/m3
2023-01-26 01:00 2.31 µg/m3 0.23 µg/m3 83.49 µg/m3 20.75 µg/m3 8.42 µg/m3 11.78 °C 67.31 % 1,005.45 mbar 2.8 m/s 239.43 Deg -0.1 µg/m3
2023-01-26 00:00 3.7 µg/m3 0.26 µg/m3 80.87 µg/m3 28.05 µg/m3 8.93 µg/m3 12.08 °C 66.17 % 1,006.05 mbar 2.5 m/s 230.15 Deg -0.05 µg/m3
2023-01-25 23:00 10.39 µg/m3 0.32 µg/m3 71.84 µg/m3 39.12 µg/m3 12.45 µg/m3 11.77 °C 71.79 % 1,006.79 mbar 1.49 m/s 228.55 Deg 0.12 µg/m3
2023-01-25 22:00 37.07 µg/m3 0.39 µg/m3 52.38 µg/m3 47.15 µg/m3 17.76 µg/m3 12.25 °C 66.32 % 1,007.34 mbar 0.99 m/s 227.45 Deg 2.92 µg/m3
2023-01-25 21:00 77.41 µg/m3 0.44 µg/m3 14.01 µg/m3 54.84 µg/m3 14.17 µg/m3 11.82 °C 68.82 % 1,007.65 mbar 0.84 m/s 323.43 Deg 9.96 µg/m3
2023-01-25 20:00 76.24 µg/m3 0.43 µg/m3 17.06 µg/m3 50.22 µg/m3 11.94 µg/m3 11.93 °C 69.12 % 1,007.82 mbar 1.12 m/s 297.05 Deg 13.15 µg/m3
2023-01-25 19:00 84.35 µg/m3 0.65 µg/m3 11.42 µg/m3 39.98 µg/m3 6.24 µg/m3 12.22 °C 69.26 % 1,007.92 mbar 1.04 m/s 291.62 Deg 23.59 µg/m3
2023-01-25 18:00 58.33 µg/m3 0.36 µg/m3 37.1 µg/m3 18.42 µg/m3 7.15 µg/m3 12.6 °C 66.55 % 1,007.81 mbar 0.93 m/s 320.45 Deg 6.39 µg/m3
2023-01-25 17:00 37.95 µg/m3 0.31 µg/m3 60.17 µg/m3 11.88 µg/m3 6.13 µg/m3 13.47 °C 63.47 % 1,007.82 mbar 1.45 m/s 323.5 Deg 6.44 µg/m3
2023-01-25 16:00 30.16 µg/m3 0.26 µg/m3 73.28 µg/m3 16.9 µg/m3 5.54 µg/m3 13.98 °C 60.51 % 1,007.82 mbar 1.94 m/s 301.75 Deg 6.42 µg/m3
2023-01-25 15:00 19.08 µg/m3 0.21 µg/m3 77.92 µg/m3 14.99 µg/m3 5.34 µg/m3 14.31 °C 60.83 % 1,007.88 mbar 2.25 m/s 291.62 Deg 3.2 µg/m3
2023-01-25 14:00 21.22 µg/m3 0.26 µg/m3 72.66 µg/m3 15.16 µg/m3 6.3 µg/m3 14.1 °C 66.63 % 1,008.32 mbar 2.24 m/s 307.17 Deg 3.85 µg/m3
2023-01-25 13:00 10.35 µg/m3 0.25 µg/m3 82.78 µg/m3 21.79 µg/m3 8.19 µg/m3 14.55 °C 62.58 % 1,009.08 mbar 2.14 m/s 256.17 Deg 1.63 µg/m3
2023-01-25 12:00 11.04 µg/m3 0.31 µg/m3 80.22 µg/m3 28.01 µg/m3 6.25 µg/m3 14.24 °C 63.36 % 1,010.07 mbar 1.78 m/s 206.37 Deg 1.59 µg/m3
2023-01-25 11:00 40.66 µg/m3 0.58 µg/m3 51.62 µg/m3 46.1 µg/m3 8.77 µg/m3 13.67 °C 74.05 % 1,010.69 mbar 1.14 m/s 325.45 Deg 15.08 µg/m3
2023-01-25 10:00 80.38 µg/m3 1.1 µg/m3 13.14 µg/m3 25.74 µg/m3 12.06 µg/m3 12.4 °C 80.12 % 1,010.88 mbar 1.09 m/s 311.32 Deg 65.18 µg/m3
2023-01-25 09:00 84.37 µg/m3 1.02 µg/m3 8.1 µg/m3 15.02 µg/m3 4.25 µg/m3 11.47 °C 84.21 % 1,010.53 mbar 0.87 m/s 314.2 Deg 64.77 µg/m3
2023-01-25 08:00 77.8 µg/m3 0.64 µg/m3 9.33 µg/m3 9.03 µg/m3 4.82 µg/m3 10.86 °C 86.34 % 1,010.30 mbar 1.2 m/s 308.1 Deg 29.37 µg/m3
2023-01-25 07:00 69.79 µg/m3 0.48 µg/m3 10.44 µg/m3 5.43 µg/m3 5.41 µg/m3 10.1 °C 87.26 % 1,010.29 mbar 1.63 m/s 305.98 Deg 23.58 µg/m3
2023-01-25 06:00 26.68 µg/m3 0.23 µg/m3 54.59 µg/m3 6.35 µg/m3 6.34 µg/m3 11.15 °C 81.96 % 1,010.26 mbar 1.73 m/s 303.52 Deg 3.2 µg/m3
2023-01-25 05:00 6.26 µg/m3 0.16 µg/m3 73.64 µg/m3 7.82 µg/m3 6.11 µg/m3 11.79 °C 82.03 % 1,010.49 mbar 1.87 m/s 292.82 Deg 0.03 µg/m3
2023-01-25 04:00 30.88 µg/m3 0.2 µg/m3 50.56 µg/m3 8.76 µg/m3 5.1 µg/m3 12.57 °C 82.19 % 1,010.52 mbar 1.71 m/s 204.43 Deg 0.1 µg/m3
2023-01-25 03:00 34.08 µg/m3 0.16 µg/m3 51.56 µg/m3 8.6 µg/m3 4.78 µg/m3 12.6 °C 86.06 % 1,010.92 mbar 1.42 m/s 185.78 Deg 0.08 µg/m3
2023-01-25 02:00 23.65 µg/m3 0.15 µg/m3 54.34 µg/m3 7.83 µg/m3 4.91 µg/m3 12.16 °C 90.74 % 1,011.21 mbar 1.16 m/s 179.28 Deg -0.04 µg/m3
2023-01-25 01:00 4.84 µg/m3 0.15 µg/m3 74.49 µg/m3 8.89 µg/m3 4.87 µg/m3 11.97 °C 89.43 % 1,011.67 mbar 1.65 m/s 172.85 Deg -0.15 µg/m3
2023-01-25 00:00 3.19 µg/m3 0.17 µg/m3 80.15 µg/m3 9.2 µg/m3 5.76 µg/m3 11.62 °C 89.31 % 1,012.21 mbar 1.85 m/s 159.72 Deg -0.16 µg/m3
2023-01-24 23:00 3.73 µg/m3 0.16 µg/m3 77.23 µg/m3 9.88 µg/m3 4.9 µg/m3 11.2 °C 89.76 % 1,012.69 mbar 1.68 m/s 131.45 Deg -0.13 µg/m3
2023-01-24 22:00 2.56 µg/m3 0.16 µg/m3 85.41 µg/m3 8.4 µg/m3 4.59 µg/m3 11.47 °C 85.12 % 1,012.78 mbar 2.15 m/s 126.83 Deg -0.14 µg/m3
2023-01-24 21:00 2.65 µg/m3 0.17 µg/m3 85.58 µg/m3 9.02 µg/m3 5.02 µg/m3 11.42 °C 84.56 % 1,012.54 mbar 3.15 m/s 135.68 Deg -0.19 µg/m3
2023-01-24 20:00 1.74 µg/m3 0.18 µg/m3 87.68 µg/m3 11.17 µg/m3 5.42 µg/m3 11.49 °C 80.8 % 1,012.86 mbar 3.79 m/s 120.08 Deg -0.16 µg/m3
2023-01-24 19:00 2.1 µg/m3 0.15 µg/m3 84.88 µg/m3 9.59 µg/m3 5.24 µg/m3 11.14 °C 82.33 % 1,013.47 mbar 2.72 m/s 117.08 Deg -0.17 µg/m3
2023-01-24 18:00 3.18 µg/m3 0.15 µg/m3 85.48 µg/m3 7.53 µg/m3 4.43 µg/m3 11.05 °C 86.92 % 1,013.69 mbar 4.39 m/s 135.97 Deg -0.16 µg/m3
2023-01-24 17:00 15.28 µg/m3 0.19 µg/m3 71.96 µg/m3 6.61 µg/m3 3.45 µg/m3 11.4 °C 86.47 % 1,013.92 mbar 3.16 m/s 172.03 Deg 0.15 µg/m3
2023-01-24 16:00 4.27 µg/m3 0.16 µg/m3 83.7 µg/m3 6.61 µg/m3 4.01 µg/m3 11.89 °C 73.01 % 1,014.11 mbar 3.34 m/s 155.15 Deg -0.14 µg/m3
2023-01-24 15:00 2.89 µg/m3 0.17 µg/m3 87.1 µg/m3 8.26 µg/m3 5.14 µg/m3 13.54 °C 60.33 % 1,013.50 mbar 5.1 m/s 131.17 Deg -0.13 µg/m3
2023-01-24 14:00 2.64 µg/m3 0.19 µg/m3 86.59 µg/m3 7.92 µg/m3 4.79 µg/m3 13.61 °C 61.23 % 1,013.25 mbar 6.1 m/s 119.63 Deg -0.11 µg/m3
2023-01-24 13:00 2.66 µg/m3 0.18 µg/m3 84.81 µg/m3 9.62 µg/m3 5.24 µg/m3 13.79 °C 61.36 % 1,013.81 mbar 6.17 m/s 117.82 Deg -0.03 µg/m3
2023-01-24 12:00 2.82 µg/m3 0.19 µg/m3 82.12 µg/m3 12.96 µg/m3 5 µg/m3 14.1 °C 63.27 % 1,014.75 mbar 6.37 m/s 126.57 Deg 0.45 µg/m3
2023-01-24 11:00 1.49 µg/m3 0.21 µg/m3 81.13 µg/m3 15.36 µg/m3 7.12 µg/m3 13.72 °C 61.03 % 1,015.77 mbar 5.49 m/s 120.28 Deg -0.1 µg/m3
2023-01-24 10:00 1.89 µg/m3 0.23 µg/m3 80.54 µg/m3 19.59 µg/m3 6.69 µg/m3 13.11 °C 67.77 % 1,016.05 mbar 5.13 m/s 123.58 Deg -0.08 µg/m3
2023-01-24 09:00 2.27 µg/m3 0.23 µg/m3 79.19 µg/m3 14.3 µg/m3 7.58 µg/m3 12.61 °C 65.31 % 1,015.98 mbar 4.56 m/s 126.52 Deg -0.1 µg/m3
2023-01-24 08:00 3.44 µg/m3 0.27 µg/m3 77.47 µg/m3 15.36 µg/m3 7 µg/m3 11.93 °C 61.36 % 1,015.78 mbar 4.02 m/s 128.08 Deg -0.11 µg/m3
2023-01-24 07:00 50.38 µg/m3 0.56 µg/m3 32.27 µg/m3 10.46 µg/m3 4.98 µg/m3 11.48 °C 67.32 % 1,015.60 mbar 1.26 m/s 165.88 Deg 23.56 µg/m3
2023-01-24 06:00 42.46 µg/m3 0.49 µg/m3 35.31 µg/m3 11.08 µg/m3 5.2 µg/m3 11.26 °C 64.38 % 1,015.66 mbar 0.63 m/s 285.17 Deg 15.75 µg/m3
2023-01-24 05:00 12.45 µg/m3 0.26 µg/m3 66.16 µg/m3 13.1 µg/m3 5.48 µg/m3 11.44 °C 63.37 % 1,015.62 mbar 0.87 m/s 324.31 Deg 0.68 µg/m3
2023-01-24 04:00 8.06 µg/m3 0.26 µg/m3 69.26 µg/m3 15.29 µg/m3 4.87 µg/m3 10.98 °C 66.82 % 1,015.92 mbar 1.23 m/s 312.71 Deg 0.01 µg/m3
2023-01-24 03:00 5.76 µg/m3 0.27 µg/m3 71.88 µg/m3 21.28 µg/m3 6.03 µg/m3 11.19 °C 67.55 % 1,016.18 mbar 1.41 m/s 275.3 Deg -0.11 µg/m3
2023-01-24 02:00 11.98 µg/m3 0.31 µg/m3 67.49 µg/m3 22.03 µg/m3 5.6 µg/m3 11.39 °C 62.01 % 1,016.06 mbar 1.19 m/s 311.37 Deg 0.02 µg/m3
2023-01-24 01:00 38.96 µg/m3 0.39 µg/m3 36.69 µg/m3 19.69 µg/m3 6.46 µg/m3 11.12 °C 56.7 % 1,015.82 mbar 1.31 m/s 319.97 Deg 2.12 µg/m3
2023-01-24 00:00 47.21 µg/m3 0.33 µg/m3 30.82 µg/m3 27.5 µg/m3 9.27 µg/m3 11.75 °C 53.19 % 1,015.87 mbar 1.01 m/s 322.52 Deg 2.61 µg/m3
2023-01-23 23:00 33.67 µg/m3 0.33 µg/m3 46.02 µg/m3 36.79 µg/m3 9.9 µg/m3 11.98 °C 51.79 % 1,015.87 mbar 1.21 m/s 272.67 Deg 3.86 µg/m3
2023-01-23 22:00 49.08 µg/m3 0.36 µg/m3 33.81 µg/m3 25 µg/m3 6.99 µg/m3 11.66 °C 53.56 % 1,015.67 mbar 1.18 m/s 287.63 Deg 5.92 µg/m3
2023-01-23 21:00 34.29 µg/m3 0.26 µg/m3 52.61 µg/m3 26.44 µg/m3 5.57 µg/m3 11.91 °C 52.47 % 1,015.11 mbar 1.33 m/s 266.35 Deg 1.85 µg/m3
2023-01-23 20:00 29.24 µg/m3 0.24 µg/m3 57.39 µg/m3 14.7 µg/m3 4.46 µg/m3 11.74 °C 55.7 % 1,014.63 mbar 1.39 m/s 263.02 Deg 1.2 µg/m3
2023-01-23 19:00 28.02 µg/m3 0.26 µg/m3 52.11 µg/m3 11.83 µg/m3 5.16 µg/m3 11.38 °C 69.59 % 1,014.22 mbar 1.39 m/s 222.33 Deg 1.81 µg/m3
2023-01-23 18:00 8.28 µg/m3 0.24 µg/m3 72.29 µg/m3 14.32 µg/m3 5.59 µg/m3 11.64 °C 70.72 % 1,013.73 mbar 2.13 m/s 208.73 Deg 0.02 µg/m3
2023-01-23 17:00 16.24 µg/m3 0.24 µg/m3 66.57 µg/m3 17.63 µg/m3 4.96 µg/m3 13.07 °C 53.93 % 1,013.26 mbar 1.78 m/s 228.47 Deg 1.28 µg/m3
2023-01-23 16:00 10.46 µg/m3 0.25 µg/m3 75.76 µg/m3 12.41 µg/m3 4.6 µg/m3 13.78 °C 51.05 % 1,012.90 mbar 2.25 m/s 231.17 Deg 1.52 µg/m3
2023-01-23 15:00 10.75 µg/m3 0.24 µg/m3 73.8 µg/m3 12.82 µg/m3 5.57 µg/m3 14.16 °C 51.73 % 1,012.33 mbar 2.7 m/s 247.28 Deg 2.23 µg/m3
2023-01-23 14:00 7.6 µg/m3 0.24 µg/m3 75.75 µg/m3 15.58 µg/m3 6.18 µg/m3 14.13 °C 53.49 % 1,012.16 mbar 2.53 m/s 261.72 Deg 1.42 µg/m3
2023-01-23 13:00 6.79 µg/m3 0.24 µg/m3 76.64 µg/m3 20.23 µg/m3 7.45 µg/m3 13.98 °C 51.15 % 1,012.20 mbar 2.72 m/s 261.22 Deg 1.26 µg/m3
2023-01-23 12:00 8.28 µg/m3 0.29 µg/m3 72.85 µg/m3 18.48 µg/m3 5.78 µg/m3 13.79 °C 53.75 % 1,012.41 mbar 2.7 m/s 247.67 Deg 1.76 µg/m3
2023-01-23 11:00 15.42 µg/m3 0.36 µg/m3 66.03 µg/m3 17.44 µg/m3 5.72 µg/m3 13.34 °C 55.17 % 1,012.56 mbar 2.14 m/s 264.82 Deg 3.42 µg/m3
2023-01-23 10:00 32.28 µg/m3 0.42 µg/m3 47.69 µg/m3 19.41 µg/m3 5.92 µg/m3 12.26 °C 59.15 % 1,012.38 mbar 1.39 m/s 275.13 Deg 8.2 µg/m3
2023-01-23 09:00 62.32 µg/m3 0.63 µg/m3 24.72 µg/m3 22.52 µg/m3 6.2 µg/m3 10.88 °C 62.18 % 1,011.79 mbar 1.56 m/s 283.27 Deg 26.68 µg/m3
2023-01-23 08:00 78.03 µg/m3 0.81 µg/m3 7.64 µg/m3 12.37 µg/m3 4.3 µg/m3 9.58 °C 72.82 % 1,011.21 mbar 1.35 m/s 290.37 Deg 45.65 µg/m3
2023-01-23 07:00 65.33 µg/m3 0.55 µg/m3 15.35 µg/m3 8.2 µg/m3 5.08 µg/m3 9.15 °C 78.23 % 1,010.80 mbar 1.12 m/s 317.1 Deg 24.31 µg/m3
2023-01-23 06:00 38.98 µg/m3 0.32 µg/m3 36.49 µg/m3 6.9 µg/m3 4.74 µg/m3 9.22 °C 76.63 % 1,010.40 mbar 0.87 m/s 324.94 Deg 8.6 µg/m3
2023-01-23 05:00 5.09 µg/m3 0.21 µg/m3 69.98 µg/m3 7.17 µg/m3 5.83 µg/m3 9.62 °C 65.78 % 1,009.96 mbar 2.21 m/s 298.9 Deg 0.01 µg/m3

It is to be noted that the data is provisional and subject to quality assurance procedures. For validated data kindly refer your request to contact.air@era.org.mt